sensor_id;sensor_type;location;lat;lon;timestamp;P1;durP1;ratioP1;P2;durP2;ratioP2
63050;SDS011;49136;47.416;19.402;2022-11-15T00:00:50;23.05;;;7.90;;
63050;SDS011;49136;47.416;19.402;2022-11-15T00:03:19;15.70;;;5.80;;
63050;SDS011;49136;47.416;19.402;2022-11-15T00:05:47;22.90;;;10.07;;
63050;SDS011;49136;47.416;19.402;2022-11-15T00:08:13;13.05;;;8.07;;
63050;SDS011;49136;47.416;19.402;2022-11-15T00:10:38;22.65;;;9.05;;
63050;SDS011;49136;47.416;19.402;2022-11-15T00:13:08;16.40;;;6.93;;
63050;SDS011;49136;47.416;19.402;2022-11-15T00:15:37;19.95;;;7.78;;
63050;SDS011;49136;47.416;19.402;2022-11-15T00:18:04;14.45;;;6.93;;
63050;SDS011;49136;47.416;19.402;2022-11-15T00:20:31;19.13;;;8.02;;
63050;SDS011;49136;47.416;19.402;2022-11-15T00:22:58;13.05;;;5.85;;
63050;SDS011;49136;47.416;19.402;2022-11-15T00:25:24;18.23;;;7.40;;
63050;SDS011;49136;47.416;19.402;2022-11-15T00:27:50;21.95;;;7.40;;
63050;SDS011;49136;47.416;19.402;2022-11-15T00:30:19;13.05;;;5.82;;
63050;SDS011;49136;47.416;19.402;2022-11-15T00:32:45;16.15;;;7.50;;
63050;SDS011;49136;47.416;19.402;2022-11-15T00:35:10;14.32;;;7.38;;
63050;SDS011;49136;47.416;19.402;2022-11-15T00:37:35;15.40;;;6.30;;
63050;SDS011;49136;47.416;19.402;2022-11-15T00:40:01;15.65;;;7.10;;
63050;SDS011;49136;47.416;19.402;2022-11-15T00:42:26;20.45;;;7.75;;
63050;SDS011;49136;47.416;19.402;2022-11-15T00:44:52;13.60;;;7.40;;
63050;SDS011;49136;47.416;19.402;2022-11-15T00:47:17;23.02;;;8.77;;
63050;SDS011;49136;47.416;19.402;2022-11-15T00:49:43;18.63;;;9.95;;
63050;SDS011;49136;47.416;19.402;2022-11-15T00:52:08;19.38;;;6.55;;
63050;SDS011;49136;47.416;19.402;2022-11-15T00:54:33;14.23;;;7.03;;
63050;SDS011;49136;47.416;19.402;2022-11-15T00:56:59;19.05;;;8.20;;
63050;SDS011;49136;47.416;19.402;2022-11-15T00:59:24;10.98;;;5.93;;
63050;SDS011;49136;47.416;19.402;2022-11-15T01:01:50;21.40;;;7.55;;
63050;SDS011;49136;47.416;19.402;2022-11-15T01:04:15;17.95;;;6.93;;
63050;SDS011;49136;47.416;19.402;2022-11-15T01:06:40;27.60;;;6.78;;
63050;SDS011;49136;47.416;19.402;2022-11-15T01:09:06;19.77;;;7.65;;
63050;SDS011;49136;47.416;19.402;2022-11-15T01:11:31;24.25;;;9.43;;
63050;SDS011;49136;47.416;19.402;2022-11-15T01:13:56;14.73;;;8.35;;
63050;SDS011;49136;47.416;19.402;2022-11-15T01:16:22;23.25;;;9.57;;
63050;SDS011;49136;47.416;19.402;2022-11-15T01:18:47;23.20;;;8.70;;
63050;SDS011;49136;47.416;19.402;2022-11-15T01:21:14;26.67;;;9.80;;
63050;SDS011;49136;47.416;19.402;2022-11-15T01:23:42;22.38;;;9.93;;
63050;SDS011;49136;47.416;19.402;2022-11-15T01:26:09;18.38;;;8.02;;
63050;SDS011;49136;47.416;19.402;2022-11-15T01:28:37;25.08;;;8.30;;
63050;SDS011;49136;47.416;19.402;2022-11-15T01:31:05;13.50;;;6.70;;
63050;SDS011;49136;47.416;19.402;2022-11-15T01:33:33;15.77;;;7.18;;
63050;SDS011;49136;47.416;19.402;2022-11-15T01:36:07;18.27;;;7.00;;
63050;SDS011;49136;47.416;19.402;2022-11-15T01:38:35;19.02;;;7.18;;
63050;SDS011;49136;47.416;19.402;2022-11-15T01:41:01;21.88;;;10.88;;
63050;SDS011;49136;47.416;19.402;2022-11-15T01:43:27;14.60;;;7.75;;
63050;SDS011;49136;47.416;19.402;2022-11-15T01:45:56;17.77;;;5.97;;
63050;SDS011;49136;47.416;19.402;2022-11-15T01:48:29;18.05;;;7.38;;
63050;SDS011;49136;47.416;19.402;2022-11-15T01:50:57;24.83;;;7.50;;
63050;SDS011;49136;47.416;19.402;2022-11-15T01:53:24;20.80;;;9.77;;
63050;SDS011;49136;47.416;19.402;2022-11-15T01:55:51;18.10;;;7.90;;
63050;SDS011;49136;47.416;19.402;2022-11-15T01:58:18;22.33;;;7.78;;
63050;SDS011;49136;47.416;19.402;2022-11-15T02:00:44;27.20;;;8.02;;
63050;SDS011;49136;47.416;19.402;2022-11-15T02:03:10;21.40;;;7.40;;
63050;SDS011;49136;47.416;19.402;2022-11-15T02:05:35;15.93;;;7.30;;
63050;SDS011;49136;47.416;19.402;2022-11-15T02:08:02;20.23;;;6.95;;
63050;SDS011;49136;47.416;19.402;2022-11-15T02:10:27;10.70;;;6.95;;
63050;SDS011;49136;47.416;19.402;2022-11-15T02:12:53;25.50;;;9.20;;
63050;SDS011;49136;47.416;19.402;2022-11-15T02:15:19;16.02;;;7.95;;
63050;SDS011;49136;47.416;19.402;2022-11-15T02:29:10;23.95;;;9.63;;
63050;SDS011;49136;47.416;19.402;2022-11-15T02:39:46;28.48;;;9.70;;
63050;SDS011;49136;47.416;19.402;2022-11-15T02:42:42;13.45;;;6.95;;
63050;SDS011;49136;47.416;19.402;2022-11-15T02:45:46;19.75;;;7.97;;
63050;SDS011;49136;47.416;19.402;2022-11-15T02:48:15;16.80;;;8.10;;
63050;SDS011;49136;47.416;19.402;2022-11-15T02:50:42;22.75;;;8.38;;
63050;SDS011;49136;47.416;19.402;2022-11-15T02:53:08;23.23;;;8.60;;
63050;SDS011;49136;47.416;19.402;2022-11-15T02:55:38;20.20;;;8.85;;
63050;SDS011;49136;47.416;19.402;2022-11-15T02:58:19;19.80;;;8.70;;
63050;SDS011;49136;47.416;19.402;2022-11-15T03:03:29;30.63;;;10.68;;
63050;SDS011;49136;47.416;19.402;2022-11-15T03:06:05;21.05;;;9.77;;
63050;SDS011;49136;47.416;19.402;2022-11-15T03:08:45;11.63;;;7.72;;
63050;SDS011;49136;47.416;19.402;2022-11-15T03:11:20;32.38;;;10.45;;
63050;SDS011;49136;47.416;19.402;2022-11-15T03:13:48;19.65;;;8.90;;
63050;SDS011;49136;47.416;19.402;2022-11-15T03:19:13;21.98;;;10.10;;
63050;SDS011;49136;47.416;19.402;2022-11-15T03:21:51;18.95;;;9.45;;
63050;SDS011;49136;47.416;19.402;2022-11-15T03:24:19;39.42;;;12.80;;
63050;SDS011;49136;47.416;19.402;2022-11-15T03:26:47;26.60;;;9.40;;
63050;SDS011;49136;47.416;19.402;2022-11-15T03:29:19;34.40;;;12.43;;
63050;SDS011;49136;47.416;19.402;2022-11-15T03:31:49;21.98;;;8.27;;
63050;SDS011;49136;47.416;19.402;2022-11-15T03:36:55;23.80;;;10.43;;
63050;SDS011;49136;47.416;19.402;2022-11-15T03:39:21;23.63;;;8.45;;
63050;SDS011;49136;47.416;19.402;2022-11-15T03:41:58;34.47;;;12.35;;
63050;SDS011;49136;47.416;19.402;2022-11-15T03:47:29;26.05;;;9.73;;
63050;SDS011;49136;47.416;19.402;2022-11-15T03:50:00;13.38;;;7.97;;
63050;SDS011;49136;47.416;19.402;2022-11-15T03:52:32;29.13;;;11.68;;
63050;SDS011;49136;47.416;19.402;2022-11-15T03:54:59;32.10;;;13.05;;
63050;SDS011;49136;47.416;19.402;2022-11-15T03:57:26;22.77;;;10.23;;
63050;SDS011;49136;47.416;19.402;2022-11-15T03:59:54;17.90;;;9.05;;
63050;SDS011;49136;47.416;19.402;2022-11-15T04:02:19;20.10;;;8.95;;
63050;SDS011;49136;47.416;19.402;2022-11-15T04:04:45;21.80;;;9.57;;
63050;SDS011;49136;47.416;19.402;2022-11-15T04:07:10;31.15;;;11.38;;
63050;SDS011;49136;47.416;19.402;2022-11-15T04:09:36;31.88;;;14.05;;
63050;SDS011;49136;47.416;19.402;2022-11-15T04:12:24;23.52;;;10.00;;
63050;SDS011;49136;47.416;19.402;2022-11-15T04:14:56;35.58;;;13.25;;
63050;SDS011;49136;47.416;19.402;2022-11-15T04:17:36;35.63;;;13.82;;
63050;SDS011;49136;47.416;19.402;2022-11-15T04:20:14;25.88;;;10.88;;
63050;SDS011;49136;47.416;19.402;2022-11-15T04:23:00;19.02;;;9.57;;
63050;SDS011;49136;47.416;19.402;2022-11-15T04:25:45;25.00;;;10.10;;
63050;SDS011;49136;47.416;19.402;2022-11-15T04:28:13;24.38;;;10.40;;
63050;SDS011;49136;47.416;19.402;2022-11-15T04:30:39;25.73;;;13.35;;
63050;SDS011;49136;47.416;19.402;2022-11-15T04:33:04;21.35;;;8.50;;
63050;SDS011;49136;47.416;19.402;2022-11-15T04:35:29;29.17;;;12.65;;
63050;SDS011;49136;47.416;19.402;2022-11-15T04:37:56;13.38;;;7.25;;
63050;SDS011;49136;47.416;19.402;2022-11-15T04:40:22;28.88;;;10.82;;
63050;SDS011;49136;47.416;19.402;2022-11-15T04:42:48;29.10;;;11.75;;
63050;SDS011;49136;47.416;19.402;2022-11-15T04:45:13;30.20;;;12.60;;
63050;SDS011;49136;47.416;19.402;2022-11-15T04:47:38;28.33;;;10.63;;
63050;SDS011;49136;47.416;19.402;2022-11-15T04:50:04;27.30;;;12.07;;
63050;SDS011;49136;47.416;19.402;2022-11-15T04:52:30;23.33;;;9.55;;
63050;SDS011;49136;47.416;19.402;2022-11-15T04:54:55;18.67;;;8.05;;
63050;SDS011;49136;47.416;19.402;2022-11-15T04:57:20;35.63;;;10.98;;
63050;SDS011;49136;47.416;19.402;2022-11-15T04:59:46;21.67;;;8.70;;
63050;SDS011;49136;47.416;19.402;2022-11-15T05:02:11;33.40;;;13.07;;
63050;SDS011;49136;47.416;19.402;2022-11-15T05:04:37;24.38;;;10.63;;
63050;SDS011;49136;47.416;19.402;2022-11-15T05:07:02;42.47;;;13.63;;
63050;SDS011;49136;47.416;19.402;2022-11-15T05:09:29;18.85;;;6.88;;
63050;SDS011;49136;47.416;19.402;2022-11-15T05:11:54;24.77;;;11.18;;
63050;SDS011;49136;47.416;19.402;2022-11-15T05:14:20;19.70;;;9.30;;
63050;SDS011;49136;47.416;19.402;2022-11-15T05:16:45;19.88;;;9.68;;
63050;SDS011;49136;47.416;19.402;2022-11-15T05:19:10;28.60;;;10.27;;
63050;SDS011;49136;47.416;19.402;2022-11-15T05:21:36;25.17;;;9.90;;
63050;SDS011;49136;47.416;19.402;2022-11-15T05:24:02;24.08;;;12.02;;
63050;SDS011;49136;47.416;19.402;2022-11-15T05:26:28;37.88;;;14.30;;
63050;SDS011;49136;47.416;19.402;2022-11-15T05:28:54;31.67;;;12.73;;
63050;SDS011;49136;47.416;19.402;2022-11-15T05:31:23;40.97;;;14.45;;
63050;SDS011;49136;47.416;19.402;2022-11-15T05:33:49;35.13;;;12.35;;
63050;SDS011;49136;47.416;19.402;2022-11-15T05:36:38;36.72;;;11.40;;
63050;SDS011;49136;47.416;19.402;2022-11-15T05:39:06;20.63;;;9.18;;
63050;SDS011;49136;47.416;19.402;2022-11-15T05:41:37;21.73;;;8.52;;
63050;SDS011;49136;47.416;19.402;2022-11-15T05:44:15;27.08;;;11.55;;
63050;SDS011;49136;47.416;19.402;2022-11-15T05:46:44;20.50;;;8.25;;
63050;SDS011;49136;47.416;19.402;2022-11-15T05:49:11;20.20;;;11.13;;
63050;SDS011;49136;47.416;19.402;2022-11-15T05:51:41;36.42;;;12.75;;
63050;SDS011;49136;47.416;19.402;2022-11-15T05:54:08;17.75;;;9.45;;
63050;SDS011;49136;47.416;19.402;2022-11-15T05:56:35;11.70;;;4.13;;
63050;SDS011;49136;47.416;19.402;2022-11-15T05:59:00;27.73;;;10.50;;
63050;SDS011;49136;47.416;19.402;2022-11-15T06:01:26;20.30;;;10.00;;
63050;SDS011;49136;47.416;19.402;2022-11-15T06:03:52;38.97;;;15.13;;
63050;SDS011;49136;47.416;19.402;2022-11-15T06:06:17;22.92;;;10.93;;
63050;SDS011;49136;47.416;19.402;2022-11-15T06:08:42;31.60;;;10.48;;
63050;SDS011;49136;47.416;19.402;2022-11-15T06:11:08;29.75;;;12.63;;
63050;SDS011;49136;47.416;19.402;2022-11-15T06:13:33;29.20;;;11.95;;
63050;SDS011;49136;47.416;19.402;2022-11-15T06:15:59;42.35;;;17.55;;
63050;SDS011;49136;47.416;19.402;2022-11-15T06:18:25;39.50;;;15.13;;
63050;SDS011;49136;47.416;19.402;2022-11-15T06:20:50;38.50;;;13.18;;
63050;SDS011;49136;47.416;19.402;2022-11-15T06:23:16;19.13;;;10.20;;
63050;SDS011;49136;47.416;19.402;2022-11-15T06:25:41;31.65;;;13.27;;
63050;SDS011;49136;47.416;19.402;2022-11-15T06:28:06;30.42;;;11.15;;
63050;SDS011;49136;47.416;19.402;2022-11-15T06:30:32;29.88;;;11.30;;
63050;SDS011;49136;47.416;19.402;2022-11-15T06:33:01;20.60;;;10.55;;
63050;SDS011;49136;47.416;19.402;2022-11-15T06:35:28;30.02;;;10.32;;
63050;SDS011;49136;47.416;19.402;2022-11-15T06:37:54;28.25;;;13.30;;
63050;SDS011;49136;47.416;19.402;2022-11-15T06:40:20;25.45;;;10.38;;
63050;SDS011;49136;47.416;19.402;2022-11-15T06:42:45;23.58;;;12.45;;
63050;SDS011;49136;47.416;19.402;2022-11-15T06:45:11;33.40;;;11.10;;
63050;SDS011;49136;47.416;19.402;2022-11-15T06:47:43;34.47;;;13.13;;
63050;SDS011;49136;47.416;19.402;2022-11-15T06:50:12;28.58;;;11.88;;
63050;SDS011;49136;47.416;19.402;2022-11-15T06:52:38;17.02;;;10.98;;
63050;SDS011;49136;47.416;19.402;2022-11-15T06:55:03;61.20;;;20.58;;
63050;SDS011;49136;47.416;19.402;2022-11-15T06:57:29;43.38;;;17.73;;
63050;SDS011;49136;47.416;19.402;2022-11-15T06:59:54;24.58;;;11.48;;
63050;SDS011;49136;47.416;19.402;2022-11-15T07:02:20;37.85;;;13.52;;
63050;SDS011;49136;47.416;19.402;2022-11-15T07:04:45;22.63;;;10.40;;
63050;SDS011;49136;47.416;19.402;2022-11-15T07:07:10;21.75;;;10.55;;
63050;SDS011;49136;47.416;19.402;2022-11-15T07:09:36;22.45;;;10.57;;
63050;SDS011;49136;47.416;19.402;2022-11-15T07:12:01;33.85;;;13.13;;
63050;SDS011;49136;47.416;19.402;2022-11-15T07:14:27;23.33;;;11.63;;
63050;SDS011;49136;47.416;19.402;2022-11-15T07:16:52;19.73;;;10.93;;
63050;SDS011;49136;47.416;19.402;2022-11-15T07:19:18;39.35;;;12.32;;
63050;SDS011;49136;47.416;19.402;2022-11-15T07:21:43;22.45;;;11.70;;
63050;SDS011;49136;47.416;19.402;2022-11-15T07:24:08;41.65;;;13.52;;
63050;SDS011;49136;47.416;19.402;2022-11-15T07:26:34;26.25;;;11.02;;
63050;SDS011;49136;47.416;19.402;2022-11-15T07:28:59;35.75;;;15.50;;
63050;SDS011;49136;47.416;19.402;2022-11-15T07:31:24;30.38;;;12.80;;
63050;SDS011;49136;47.416;19.402;2022-11-15T07:33:50;25.52;;;11.48;;
63050;SDS011;49136;47.416;19.402;2022-11-15T07:36:15;41.00;;;16.30;;
63050;SDS011;49136;47.416;19.402;2022-11-15T07:38:41;30.55;;;14.77;;
63050;SDS011;49136;47.416;19.402;2022-11-15T07:41:07;36.47;;;15.63;;
63050;SDS011;49136;47.416;19.402;2022-11-15T07:43:32;62.20;;;17.25;;
63050;SDS011;49136;47.416;19.402;2022-11-15T07:45:59;56.05;;;21.52;;
63050;SDS011;49136;47.416;19.402;2022-11-15T07:48:34;54.22;;;22.05;;
63050;SDS011;49136;47.416;19.402;2022-11-15T07:51:00;73.10;;;23.02;;
63050;SDS011;49136;47.416;19.402;2022-11-15T07:53:25;44.28;;;18.95;;
63050;SDS011;49136;47.416;19.402;2022-11-15T07:55:51;53.53;;;19.88;;
63050;SDS011;49136;47.416;19.402;2022-11-15T07:58:18;56.13;;;18.42;;
63050;SDS011;49136;47.416;19.402;2022-11-15T08:00:44;37.67;;;16.30;;
63050;SDS011;49136;47.416;19.402;2022-11-15T08:03:10;46.65;;;17.85;;
63050;SDS011;49136;47.416;19.402;2022-11-15T08:05:38;43.72;;;19.48;;
63050;SDS011;49136;47.416;19.402;2022-11-15T08:08:05;33.60;;;17.85;;
63050;SDS011;49136;47.416;19.402;2022-11-15T08:10:32;46.33;;;17.52;;
63050;SDS011;49136;47.416;19.402;2022-11-15T08:13:01;48.70;;;19.55;;
63050;SDS011;49136;47.416;19.402;2022-11-15T08:15:35;37.53;;;15.73;;
63050;SDS011;49136;47.416;19.402;2022-11-15T08:18:02;44.42;;;17.70;;
63050;SDS011;49136;47.416;19.402;2022-11-15T08:20:30;35.97;;;12.85;;
63050;SDS011;49136;47.416;19.402;2022-11-15T08:22:56;39.38;;;18.20;;
63050;SDS011;49136;47.416;19.402;2022-11-15T08:25:23;39.33;;;18.00;;
63050;SDS011;49136;47.416;19.402;2022-11-15T08:27:52;38.35;;;15.77;;
63050;SDS011;49136;47.416;19.402;2022-11-15T08:30:21;41.72;;;19.67;;
63050;SDS011;49136;47.416;19.402;2022-11-15T08:32:48;45.67;;;18.17;;
63050;SDS011;49136;47.416;19.402;2022-11-15T08:35:14;45.53;;;18.25;;
63050;SDS011;49136;47.416;19.402;2022-11-15T08:37:40;44.08;;;16.05;;
63050;SDS011;49136;47.416;19.402;2022-11-15T08:40:05;30.42;;;14.13;;
63050;SDS011;49136;47.416;19.402;2022-11-15T08:42:31;39.15;;;14.02;;
63050;SDS011;49136;47.416;19.402;2022-11-15T08:44:57;32.53;;;15.15;;
63050;SDS011;49136;47.416;19.402;2022-11-15T08:47:22;42.60;;;16.42;;
63050;SDS011;49136;47.416;19.402;2022-11-15T08:49:47;32.35;;;15.75;;
63050;SDS011;49136;47.416;19.402;2022-11-15T08:52:13;25.80;;;14.27;;
63050;SDS011;49136;47.416;19.402;2022-11-15T08:54:39;39.67;;;15.57;;
63050;SDS011;49136;47.416;19.402;2022-11-15T08:57:06;38.45;;;18.40;;
63050;SDS011;49136;47.416;19.402;2022-11-15T08:59:31;39.47;;;16.75;;
63050;SDS011;49136;47.416;19.402;2022-11-15T09:01:57;43.38;;;17.10;;
63050;SDS011;49136;47.416;19.402;2022-11-15T09:04:22;34.42;;;14.63;;
63050;SDS011;49136;47.416;19.402;2022-11-15T09:06:47;46.63;;;17.45;;
63050;SDS011;49136;47.416;19.402;2022-11-15T09:09:13;37.88;;;17.13;;
63050;SDS011;49136;47.416;19.402;2022-11-15T09:11:39;43.33;;;16.90;;
63050;SDS011;49136;47.416;19.402;2022-11-15T09:14:04;52.53;;;18.05;;
63050;SDS011;49136;47.416;19.402;2022-11-15T09:16:30;40.85;;;17.85;;
63050;SDS011;49136;47.416;19.402;2022-11-15T09:18:55;35.75;;;15.90;;
63050;SDS011;49136;47.416;19.402;2022-11-15T09:21:21;37.92;;;16.25;;
63050;SDS011;49136;47.416;19.402;2022-11-15T09:23:46;35.88;;;14.82;;
63050;SDS011;49136;47.416;19.402;2022-11-15T09:26:14;42.35;;;17.35;;
63050;SDS011;49136;47.416;19.402;2022-11-15T09:28:40;29.58;;;15.88;;
63050;SDS011;49136;47.416;19.402;2022-11-15T09:31:07;20.58;;;10.38;;
63050;SDS011;49136;47.416;19.402;2022-11-15T09:33:32;47.13;;;18.67;;
63050;SDS011;49136;47.416;19.402;2022-11-15T09:36:02;68.78;;;22.77;;
63050;SDS011;49136;47.416;19.402;2022-11-15T09:40:59;28.95;;;14.60;;
63050;SDS011;49136;47.416;19.402;2022-11-15T09:43:47;21.60;;;11.15;;
63050;SDS011;49136;47.416;19.402;2022-11-15T09:51:45;32.95;;;12.98;;
63050;SDS011;49136;47.416;19.402;2022-11-15T09:54:27;39.10;;;15.55;;
63050;SDS011;49136;47.416;19.402;2022-11-15T09:57:03;28.45;;;12.60;;
63050;SDS011;49136;47.416;19.402;2022-11-15T10:04:52;37.58;;;13.90;;
63050;SDS011;49136;47.416;19.402;2022-11-15T10:07:20;40.05;;;16.73;;
63050;SDS011;49136;47.416;19.402;2022-11-15T10:09:56;33.30;;;14.27;;
63050;SDS011;49136;47.416;19.402;2022-11-15T10:12:44;26.85;;;13.50;;
63050;SDS011;49136;47.416;19.402;2022-11-15T10:15:13;24.17;;;11.13;;
63050;SDS011;49136;47.416;19.402;2022-11-15T10:20:39;30.70;;;13.45;;
63050;SDS011;49136;47.416;19.402;2022-11-15T10:23:13;30.67;;;13.02;;
63050;SDS011;49136;47.416;19.402;2022-11-15T10:25:42;37.08;;;16.48;;
63050;SDS011;49136;47.416;19.402;2022-11-15T10:28:16;34.20;;;15.07;;
63050;SDS011;49136;47.416;19.402;2022-11-15T10:30:46;40.25;;;15.20;;
63050;SDS011;49136;47.416;19.402;2022-11-15T10:33:17;28.35;;;14.98;;
63050;SDS011;49136;47.416;19.402;2022-11-15T10:35:49;38.05;;;16.10;;
63050;SDS011;49136;47.416;19.402;2022-11-15T10:41:18;45.72;;;21.08;;
63050;SDS011;49136;47.416;19.402;2022-11-15T10:44:00;40.00;;;15.77;;
63050;SDS011;49136;47.416;19.402;2022-11-15T10:46:28;35.78;;;14.68;;
63050;SDS011;49136;47.416;19.402;2022-11-15T10:48:57;33.83;;;16.50;;
63050;SDS011;49136;47.416;19.402;2022-11-15T10:51:42;31.38;;;14.07;;
63050;SDS011;49136;47.416;19.402;2022-11-15T10:54:35;42.55;;;16.67;;
63050;SDS011;49136;47.416;19.402;2022-11-15T10:57:26;55.95;;;20.92;;
63050;SDS011;49136;47.416;19.402;2022-11-15T10:59:54;45.63;;;19.05;;
63050;SDS011;49136;47.416;19.402;2022-11-15T11:02:38;27.67;;;15.40;;
63050;SDS011;49136;47.416;19.402;2022-11-15T11:05:25;36.53;;;16.88;;
63050;SDS011;49136;47.416;19.402;2022-11-15T11:08:31;52.03;;;20.67;;
63050;SDS011;49136;47.416;19.402;2022-11-15T11:10:54;53.88;;;16.88;;
63050;SDS011;49136;47.416;19.402;2022-11-15T11:13:22;36.50;;;17.05;;
63050;SDS011;49136;47.416;19.402;2022-11-15T11:15:50;31.17;;;14.27;;
63050;SDS011;49136;47.416;19.402;2022-11-15T11:19:15;33.78;;;15.60;;
63050;SDS011;49136;47.416;19.402;2022-11-15T11:21:24;27.95;;;14.00;;
63050;SDS011;49136;47.416;19.402;2022-11-15T11:26:46;29.27;;;13.88;;
63050;SDS011;49136;47.416;19.402;2022-11-15T11:43:08;45.30;;;18.58;;
63050;SDS011;49136;47.416;19.402;2022-11-15T11:53:58;32.88;;;12.50;;
63050;SDS011;49136;47.416;19.402;2022-11-15T11:56:29;26.88;;;14.02;;
63050;SDS011;49136;47.416;19.402;2022-11-15T12:05:49;32.15;;;12.80;;
63050;SDS011;49136;47.416;19.402;2022-11-15T12:07:54;37.95;;;14.55;;
63050;SDS011;49136;47.416;19.402;2022-11-15T12:10:30;30.48;;;14.82;;
63050;SDS011;49136;47.416;19.402;2022-11-15T12:13:10;30.65;;;13.32;;
63050;SDS011;49136;47.416;19.402;2022-11-15T12:15:50;31.05;;;13.15;;
63050;SDS011;49136;47.416;19.402;2022-11-15T12:18:18;35.33;;;12.43;;
63050;SDS011;49136;47.416;19.402;2022-11-15T12:20:50;39.70;;;13.85;;
63050;SDS011;49136;47.416;19.402;2022-11-15T12:23:22;33.28;;;13.32;;
63050;SDS011;49136;47.416;19.402;2022-11-15T12:25:58;27.45;;;12.60;;
63050;SDS011;49136;47.416;19.402;2022-11-15T12:28:42;32.75;;;15.32;;
63050;SDS011;49136;47.416;19.402;2022-11-15T12:31:29;42.58;;;13.05;;
63050;SDS011;49136;47.416;19.402;2022-11-15T12:33:58;36.67;;;16.50;;
63050;SDS011;49136;47.416;19.402;2022-11-15T12:36:37;31.23;;;10.90;;
63050;SDS011;49136;47.416;19.402;2022-11-15T12:39:09;28.92;;;12.32;;
63050;SDS011;49136;47.416;19.402;2022-11-15T12:41:36;33.03;;;13.57;;
63050;SDS011;49136;47.416;19.402;2022-11-15T12:44:04;28.65;;;13.25;;
63050;SDS011;49136;47.416;19.402;2022-11-15T12:49:10;35.53;;;13.82;;
63050;SDS011;49136;47.416;19.402;2022-11-15T13:02:39;22.30;;;10.70;;
63050;SDS011;49136;47.416;19.402;2022-11-15T13:17:38;31.92;;;12.10;;
63050;SDS011;49136;47.416;19.402;2022-11-15T13:27:48;26.42;;;13.45;;
63050;SDS011;49136;47.416;19.402;2022-11-15T13:30:18;29.27;;;13.32;;
63050;SDS011;49136;47.416;19.402;2022-11-15T13:32:46;22.50;;;10.38;;
63050;SDS011;49136;47.416;19.402;2022-11-15T13:35:22;26.67;;;11.05;;
63050;SDS011;49136;47.416;19.402;2022-11-15T13:37:49;26.33;;;12.57;;
63050;SDS011;49136;47.416;19.402;2022-11-15T13:40:18;27.10;;;11.48;;
63050;SDS011;49136;47.416;19.402;2022-11-15T13:42:47;25.52;;;11.77;;
63050;SDS011;49136;47.416;19.402;2022-11-15T13:45:13;23.90;;;10.90;;
63050;SDS011;49136;47.416;19.402;2022-11-15T13:47:41;21.05;;;9.75;;
63050;SDS011;49136;47.416;19.402;2022-11-15T13:50:09;27.65;;;11.82;;
63050;SDS011;49136;47.416;19.402;2022-11-15T13:52:39;25.65;;;10.43;;
63050;SDS011;49136;47.416;19.402;2022-11-15T13:57:42;25.02;;;10.85;;
63050;SDS011;49136;47.416;19.402;2022-11-15T14:02:55;24.23;;;10.13;;
63050;SDS011;49136;47.416;19.402;2022-11-15T14:05:23;32.17;;;12.45;;
63050;SDS011;49136;47.416;19.402;2022-11-15T14:08:03;29.55;;;11.65;;
63050;SDS011;49136;47.416;19.402;2022-11-15T14:10:38;19.60;;;9.52;;
63050;SDS011;49136;47.416;19.402;2022-11-15T14:13:09;19.88;;;10.75;;
63050;SDS011;49136;47.416;19.402;2022-11-15T14:15:51;26.73;;;10.25;;
63050;SDS011;49136;47.416;19.402;2022-11-15T14:21:06;23.98;;;10.65;;
63050;SDS011;49136;47.416;19.402;2022-11-15T14:23:32;26.00;;;12.80;;
63050;SDS011;49136;47.416;19.402;2022-11-15T14:25:58;32.20;;;11.52;;
63050;SDS011;49136;47.416;19.402;2022-11-15T14:30:50;25.73;;;10.75;;
63050;SDS011;49136;47.416;19.402;2022-11-15T14:33:36;22.58;;;11.27;;
63050;SDS011;49136;47.416;19.402;2022-11-15T14:36:18;28.52;;;11.38;;
63050;SDS011;49136;47.416;19.402;2022-11-15T14:38:46;33.97;;;13.15;;
63050;SDS011;49136;47.416;19.402;2022-11-15T14:41:24;26.67;;;11.93;;
63050;SDS011;49136;47.416;19.402;2022-11-15T14:43:51;26.48;;;11.65;;
63050;SDS011;49136;47.416;19.402;2022-11-15T14:46:17;33.40;;;13.95;;
63050;SDS011;49136;47.416;19.402;2022-11-15T14:48:43;30.75;;;13.65;;
63050;SDS011;49136;47.416;19.402;2022-11-15T14:51:26;24.48;;;12.32;;
63050;SDS011;49136;47.416;19.402;2022-11-15T14:53:52;28.13;;;14.10;;
63050;SDS011;49136;47.416;19.402;2022-11-15T14:56:17;31.98;;;14.00;;
63050;SDS011;49136;47.416;19.402;2022-11-15T14:58:43;31.20;;;13.20;;
63050;SDS011;49136;47.416;19.402;2022-11-15T15:01:20;28.45;;;12.50;;
63050;SDS011;49136;47.416;19.402;2022-11-15T15:03:48;32.78;;;13.73;;
63050;SDS011;49136;47.416;19.402;2022-11-15T15:06:13;30.63;;;14.73;;
63050;SDS011;49136;47.416;19.402;2022-11-15T15:08:39;49.63;;;17.58;;
63050;SDS011;49136;47.416;19.402;2022-11-15T15:11:14;42.42;;;13.63;;
63050;SDS011;49136;47.416;19.402;2022-11-15T15:13:42;42.60;;;14.88;;
63050;SDS011;49136;47.416;19.402;2022-11-15T15:16:08;43.75;;;16.60;;
63050;SDS011;49136;47.416;19.402;2022-11-15T15:18:33;39.22;;;12.75;;
63050;SDS011;49136;47.416;19.402;2022-11-15T15:20:59;38.17;;;13.80;;
63050;SDS011;49136;47.416;19.402;2022-11-15T15:23:27;36.92;;;13.75;;
63050;SDS011;49136;47.416;19.402;2022-11-15T15:25:55;36.10;;;13.25;;
63050;SDS011;49136;47.416;19.402;2022-11-15T15:28:21;36.83;;;13.82;;
63050;SDS011;49136;47.416;19.402;2022-11-15T15:30:46;40.50;;;15.45;;
63050;SDS011;49136;47.416;19.402;2022-11-15T15:33:12;41.33;;;13.98;;
63050;SDS011;49136;47.416;19.402;2022-11-15T15:35:37;42.63;;;17.20;;
63050;SDS011;49136;47.416;19.402;2022-11-15T15:38:03;46.13;;;13.73;;
63050;SDS011;49136;47.416;19.402;2022-11-15T15:40:29;39.15;;;15.98;;
63050;SDS011;49136;47.416;19.402;2022-11-15T15:42:56;52.90;;;17.98;;
63050;SDS011;49136;47.416;19.402;2022-11-15T15:45:22;45.50;;;18.08;;
63050;SDS011;49136;47.416;19.402;2022-11-15T15:47:48;50.50;;;19.10;;
63050;SDS011;49136;47.416;19.402;2022-11-15T15:50:17;47.50;;;17.25;;
63050;SDS011;49136;47.416;19.402;2022-11-15T15:52:48;48.45;;;16.30;;
63050;SDS011;49136;47.416;19.402;2022-11-15T15:55:14;71.47;;;17.98;;
63050;SDS011;49136;47.416;19.402;2022-11-15T15:57:39;58.08;;;18.48;;
63050;SDS011;49136;47.416;19.402;2022-11-15T16:00:05;53.08;;;16.10;;
63050;SDS011;49136;47.416;19.402;2022-11-15T16:02:31;56.00;;;19.92;;
63050;SDS011;49136;47.416;19.402;2022-11-15T16:04:56;61.05;;;22.30;;
63050;SDS011;49136;47.416;19.402;2022-11-15T16:07:22;49.63;;;20.23;;
63050;SDS011;49136;47.416;19.402;2022-11-15T16:09:50;52.92;;;20.67;;
63050;SDS011;49136;47.416;19.402;2022-11-15T16:12:24;60.60;;;20.33;;
63050;SDS011;49136;47.416;19.402;2022-11-15T16:14:50;56.50;;;21.60;;
63050;SDS011;49136;47.416;19.402;2022-11-15T16:17:17;50.88;;;21.10;;
63050;SDS011;49136;47.416;19.402;2022-11-15T16:19:44;53.65;;;20.65;;
63050;SDS011;49136;47.416;19.402;2022-11-15T16:22:10;55.38;;;21.10;;
63050;SDS011;49136;47.416;19.402;2022-11-15T16:24:35;48.08;;;17.35;;
63050;SDS011;49136;47.416;19.402;2022-11-15T16:27:00;53.30;;;18.17;;